createdAt,value
2023-03-04T00:01:37.559Z,50.80
2023-03-04T00:05:03.545Z,50.90
2023-03-04T00:08:27.846Z,50.90
2023-03-04T00:11:51.463Z,50.90
2023-03-04T00:15:14.962Z,51.60
2023-03-04T00:18:38.688Z,51.00
2023-03-04T00:22:03.934Z,51.00
2023-03-04T00:25:27.587Z,51.20
2023-03-04T00:28:51.167Z,51.00
2023-03-04T00:32:16.183Z,51.00
2023-03-04T00:35:39.956Z,51.10
2023-03-04T00:39:05.053Z,51.20
2023-03-04T00:42:28.786Z,51.10
2023-03-04T00:45:52.358Z,51.10
2023-03-04T00:49:16.034Z,51.20
2023-03-04T00:52:39.568Z,51.10
2023-03-04T00:56:05.312Z,51.20
2023-03-04T00:59:28.866Z,51.30
2023-03-04T01:02:53.043Z,51.20
2023-03-04T01:06:17.049Z,51.30
2023-03-04T01:09:41.746Z,51.30
2023-03-04T01:13:08.012Z,51.50
2023-03-04T01:16:31.759Z,51.30
2023-03-04T01:19:55.911Z,51.30
2023-03-04T01:23:21.444Z,51.20
2023-03-04T01:26:45.551Z,51.30
2023-03-04T01:30:13.058Z,51.20
2023-03-04T01:33:36.644Z,51.50
2023-03-04T01:37:00.159Z,51.30
2023-03-04T01:40:24.968Z,51.90
2023-03-04T01:43:48.519Z,51.30
2023-03-04T01:47:14.047Z,51.30
2023-03-04T01:50:37.857Z,51.40
2023-03-04T01:54:01.739Z,51.30
2023-03-04T01:57:27.525Z,51.30
2023-03-04T02:00:51.734Z,51.30
2023-03-04T02:04:19.429Z,51.30
2023-03-04T02:07:44.303Z,51.50
2023-03-04T02:11:07.980Z,51.40
2023-03-04T02:14:31.914Z,51.40
2023-03-04T02:17:55.898Z,51.50
2023-03-04T02:21:29.066Z,51.50
2023-03-04T02:24:59.010Z,51.70
2023-03-04T02:28:24.173Z,51.60
2023-03-04T02:31:51.589Z,51.50
2023-03-04T02:35:19.410Z,51.70
2023-03-04T02:38:43.237Z,51.80
2023-03-04T02:42:07.783Z,51.70
2023-03-04T02:45:43.421Z,51.70
2023-03-04T02:49:07.675Z,51.90
2023-03-04T02:52:31.360Z,51.80
2023-03-04T02:55:54.945Z,51.80
2023-03-04T02:59:22.629Z,51.90
2023-03-04T03:02:48.713Z,51.90
2023-03-04T03:06:13.013Z,51.80
2023-03-04T03:09:37.651Z,51.80
2023-03-04T03:13:01.434Z,51.80
2023-03-04T03:16:26.254Z,51.90
2023-03-04T03:19:51.246Z,52.00
2023-03-04T03:23:18.038Z,51.90
2023-03-04T03:26:41.640Z,51.90
2023-03-04T03:30:06.965Z,52.10
2023-03-04T03:33:33.573Z,52.20
2023-03-04T03:36:58.798Z,52.20
2023-03-04T03:40:22.375Z,52.10
2023-03-04T03:43:45.898Z,52.10
2023-03-04T03:47:09.532Z,52.10
2023-03-04T03:50:33.400Z,52.20
2023-03-04T03:53:58.331Z,52.20
2023-03-04T03:57:21.900Z,52.80
2023-03-04T04:00:45.517Z,52.20
2023-03-04T04:04:09.913Z,52.20
2023-03-04T04:07:33.972Z,52.30
2023-03-04T04:10:58.882Z,52.30
2023-03-04T04:14:22.481Z,52.30
2023-03-04T04:17:46.306Z,52.30
2023-03-04T04:21:11.081Z,52.30
2023-03-04T04:24:35.568Z,52.30
2023-03-04T04:28:00.692Z,52.40
2023-03-04T04:31:24.368Z,52.40
2023-03-04T04:34:48.010Z,52.30
2023-03-04T04:38:12.253Z,52.40
2023-03-04T04:41:40.124Z,52.40
2023-03-04T04:45:06.227Z,52.50
2023-03-04T04:48:29.844Z,52.50
2023-03-04T04:51:53.542Z,52.50
2023-03-04T04:55:17.494Z,52.60
2023-03-04T04:58:41.439Z,52.70
2023-03-04T05:02:06.659Z,52.50
2023-03-04T05:05:30.277Z,52.70
2023-03-04T05:08:53.757Z,52.90
2023-03-04T05:12:17.321Z,52.50
2023-03-04T05:15:40.908Z,52.50
2023-03-04T05:19:06.089Z,52.50
2023-03-04T05:22:29.679Z,52.60
2023-03-04T05:25:53.815Z,52.70
2023-03-04T05:29:17.450Z,52.60
2023-03-04T05:32:41.191Z,52.60
2023-03-04T05:36:08.816Z,52.70
2023-03-04T05:39:32.417Z,52.80
2023-03-04T05:42:56.742Z,52.70
2023-03-04T05:46:25.286Z,52.90
2023-03-04T05:49:48.990Z,52.80
2023-03-04T05:53:14.364Z,52.80
2023-03-04T05:56:38.040Z,53.00
2023-03-04T06:00:01.738Z,53.10
2023-03-04T06:03:27.051Z,53.20
2023-03-04T06:06:50.866Z,53.00
2023-03-04T06:10:18.805Z,53.30
2023-03-04T06:13:42.446Z,53.60
2023-03-04T06:17:06.389Z,53.30
2023-03-04T06:20:30.749Z,53.50
2023-03-04T06:23:54.368Z,53.60
2023-03-04T06:27:19.249Z,53.50
2023-03-04T06:30:42.894Z,53.70
2023-03-04T06:34:06.463Z,53.70
2023-03-04T06:37:30.124Z,53.90
2023-03-04T06:40:56.796Z,53.90
2023-03-04T06:44:22.802Z,54.30
2023-03-04T06:47:46.425Z,54.30
2023-03-04T06:51:12.664Z,54.60
2023-03-04T06:54:36.188Z,54.80
2023-03-04T06:58:00.166Z,54.90
2023-03-04T07:01:27.998Z,55.60
2023-03-04T07:04:52.075Z,55.20
2023-03-04T07:08:16.459Z,55.00
2023-03-04T07:11:40.548Z,55.10
2023-03-04T07:15:04.560Z,55.20
2023-03-04T07:18:29.608Z,55.20
2023-03-04T07:21:53.162Z,55.10
2023-03-04T07:25:17.962Z,55.20
2023-03-04T07:28:42.771Z,55.40
2023-03-04T07:32:09.682Z,55.50
2023-03-04T07:35:35.599Z,55.40
2023-03-04T07:38:59.307Z,55.50
2023-03-04T07:42:22.993Z,55.40
2023-03-04T07:46:00.312Z,55.70
2023-03-04T07:49:23.942Z,55.90
2023-03-04T07:52:51.012Z,55.80
2023-03-04T07:56:17.553Z,56.10
2023-03-04T07:59:41.420Z,56.10
2023-03-04T08:03:05.695Z,56.00
2023-03-04T08:06:30.742Z,56.10
2023-03-04T08:09:55.776Z,55.70
2023-03-04T08:13:19.409Z,55.70
2023-03-04T08:16:43.173Z,55.50
2023-03-04T08:20:08.611Z,55.40
2023-03-04T08:23:32.343Z,55.50
2023-03-04T08:26:57.763Z,55.50
2023-03-04T08:30:21.858Z,55.70
2023-03-04T08:33:46.434Z,55.70
2023-03-04T08:37:10.102Z,55.90
2023-03-04T08:40:34.538Z,55.80
2023-03-04T08:44:01.227Z,56.00
2023-03-04T08:47:24.790Z,55.90
2023-03-04T08:50:49.881Z,55.60
2023-03-04T08:54:13.694Z,55.90
2023-03-04T08:57:37.459Z,56.70
2023-03-04T09:01:04.448Z,55.80
2023-03-04T09:04:28.225Z,56.00
2023-03-04T09:07:51.802Z,56.00
2023-03-04T09:11:16.190Z,56.00
2023-03-04T09:14:39.758Z,56.40
2023-03-04T09:18:06.108Z,56.00
2023-03-04T09:21:29.801Z,56.00
2023-03-04T09:24:53.389Z,55.80
2023-03-04T09:28:18.280Z,55.80
2023-03-04T09:31:41.938Z,55.80
2023-03-04T09:35:08.369Z,56.00
2023-03-04T09:38:32.044Z,56.00
2023-03-04T09:41:59.969Z,56.00
2023-03-04T09:45:30.894Z,56.10
2023-03-04T09:48:57.601Z,56.00
2023-03-04T09:52:44.721Z,55.60
2023-03-04T09:56:09.026Z,55.60
2023-03-04T09:59:43.135Z,55.20
2023-03-04T10:03:16.523Z,55.20
2023-03-04T10:06:42.461Z,55.40
2023-03-04T10:10:16.022Z,55.30
2023-03-04T10:13:54.939Z,55.60
2023-03-04T10:17:25.003Z,56.00
2023-03-04T10:20:58.162Z,56.40
2023-03-04T10:24:25.166Z,56.80
2023-03-04T10:27:56.476Z,56.90
2023-03-04T10:31:33.003Z,57.00
2023-03-04T10:34:56.795Z,56.80
2023-03-04T10:38:23.539Z,56.10
2023-03-04T10:41:58.648Z,55.90
2023-03-04T10:45:26.767Z,55.60
2023-03-04T10:48:50.999Z,55.40
2023-03-04T10:52:27.870Z,55.10
2023-03-04T10:55:51.627Z,55.10
2023-03-04T10:59:36.447Z,55.00
2023-03-04T11:06:48.177Z,54.60
2023-03-04T11:10:17.735Z,55.10
2023-03-04T11:13:54.638Z,55.30
2023-03-04T11:17:25.103Z,55.40
2023-03-04T11:20:51.983Z,55.20
2023-03-04T11:24:29.209Z,55.10
2023-03-04T11:27:58.505Z,55.00
2023-03-04T11:31:33.329Z,54.40
2023-03-04T11:35:03.919Z,54.50
2023-03-04T11:38:36.389Z,54.60
2023-03-04T11:42:11.219Z,54.70
2023-03-04T11:46:20.328Z,54.60
2023-03-04T11:50:22.774Z,54.40
2023-03-04T11:54:03.728Z,54.30
2023-03-04T11:57:43.478Z,54.30
2023-03-04T12:01:11.281Z,54.60
2023-03-04T12:05:12.261Z,54.70
2023-03-04T12:08:56.901Z,54.50
2023-03-04T12:12:43.249Z,54.40
2023-03-04T12:16:26.661Z,54.20
2023-03-04T12:20:33.811Z,54.30
2023-03-04T12:25:04.736Z,54.20
2023-03-04T12:28:52.428Z,54.40
2023-03-04T12:32:28.490Z,56.10
2023-03-04T12:36:02.397Z,54.30
2023-03-04T12:39:34.435Z,54.40
2023-03-04T12:43:32.485Z,54.30
2023-03-04T12:47:28.391Z,54.00
2023-03-04T12:51:08.936Z,53.90
2023-03-04T12:54:38.232Z,54.00
2023-03-04T12:58:02.324Z,54.20
2023-03-04T13:01:35.113Z,54.30
2023-03-04T13:05:19.905Z,54.30
2023-03-04T13:09:00.124Z,54.30
2023-03-04T13:12:24.892Z,54.00
2023-03-04T13:16:04.781Z,54.10
2023-03-04T13:19:48.333Z,53.90
2023-03-04T13:23:33.911Z,53.90
2023-03-04T13:26:58.100Z,53.60
2023-03-04T13:30:43.994Z,53.60
2023-03-04T13:34:48.045Z,53.80
2023-03-04T13:38:25.722Z,53.70
2023-03-04T13:41:55.336Z,53.90
2023-03-04T13:45:37.240Z,53.80
2023-03-04T13:49:05.606Z,53.90
2023-03-04T13:52:42.517Z,54.00
2023-03-04T13:56:25.504Z,54.00
2023-03-04T13:59:56.629Z,53.90
2023-03-04T14:03:28.373Z,53.80
2023-03-04T14:06:55.266Z,53.70
2023-03-04T14:10:26.169Z,53.50
2023-03-04T14:13:50.196Z,53.50
2023-03-04T14:17:21.931Z,54.10
2023-03-04T14:20:51.342Z,53.60
2023-03-04T14:24:17.547Z,53.40
2023-03-04T14:27:41.422Z,53.30
2023-03-04T14:31:06.330Z,53.30
2023-03-04T14:34:36.455Z,53.40
2023-03-04T14:38:06.004Z,53.50
2023-03-04T14:41:35.310Z,53.60
2023-03-04T14:45:02.703Z,53.40
2023-03-04T14:48:30.849Z,53.30
2023-03-04T14:51:57.421Z,53.50
2023-03-04T14:55:25.444Z,53.60
2023-03-04T14:58:57.112Z,53.60
2023-03-04T15:02:31.814Z,53.60
2023-03-04T15:05:55.864Z,53.70
2023-03-04T15:09:24.931Z,53.70
2023-03-04T15:12:54.829Z,53.70
2023-03-04T15:16:23.493Z,53.60
2023-03-04T15:19:47.099Z,53.60
2023-03-04T15:23:14.790Z,53.40
2023-03-04T15:26:43.764Z,53.40
2023-03-04T15:30:17.851Z,53.50
2023-03-04T15:33:41.332Z,53.60
2023-03-04T15:37:04.951Z,53.60
2023-03-04T15:40:32.482Z,53.60
2023-03-04T15:43:57.286Z,53.80
2023-03-04T15:47:20.803Z,53.70
2023-03-04T15:50:48.515Z,53.80
2023-03-04T15:54:15.060Z,53.80
2023-03-04T15:57:38.680Z,53.80
2023-03-04T16:01:04.137Z,53.70
2023-03-04T16:04:27.864Z,53.80
2023-03-04T16:07:53.548Z,53.70
2023-03-04T16:11:20.787Z,53.90
2023-03-04T16:14:46.868Z,54.50
2023-03-04T16:18:13.176Z,53.80
2023-03-04T16:21:37.206Z,53.70
2023-03-04T16:25:01.585Z,53.80
2023-03-04T16:28:25.745Z,53.60
2023-03-04T16:31:49.362Z,53.50
2023-03-04T16:35:16.431Z,53.60
2023-03-04T16:38:39.948Z,53.50
2023-03-04T16:42:03.592Z,53.50
2023-03-04T16:45:30.921Z,53.60
2023-03-04T16:48:55.008Z,53.70
2023-03-04T16:52:27.360Z,53.30
2023-03-04T16:55:50.987Z,53.80
2023-03-04T16:59:18.383Z,53.70
2023-03-04T17:02:42.012Z,53.80
2023-03-04T17:06:06.149Z,53.60
2023-03-04T17:09:30.987Z,53.60
2023-03-04T17:12:55.671Z,53.60
2023-03-04T17:16:19.813Z,53.60
2023-03-04T17:19:43.306Z,53.90
2023-03-04T17:23:06.900Z,53.50
2023-03-04T17:26:33.217Z,53.60
2023-03-04T17:29:57.186Z,53.60
2023-03-04T17:33:21.211Z,53.90
2023-03-04T17:36:44.743Z,53.70
2023-03-04T17:40:14.086Z,53.70
2023-03-04T17:43:38.945Z,53.90
2023-03-04T17:47:02.941Z,53.80
2023-03-04T17:50:27.145Z,53.90
2023-03-04T17:53:50.808Z,54.00
2023-03-04T17:57:16.104Z,54.00
2023-03-04T18:00:40.949Z,54.00
2023-03-04T18:04:04.985Z,54.10
2023-03-04T18:07:28.991Z,54.10
2023-03-04T18:10:52.465Z,54.20
2023-03-04T18:14:16.132Z,54.20
2023-03-04T18:17:42.421Z,54.20
2023-03-04T18:21:06.969Z,54.10
2023-03-04T18:24:30.540Z,54.20
2023-03-04T18:27:54.016Z,54.10
2023-03-04T18:31:19.838Z,54.10
2023-03-04T18:34:44.645Z,54.20
2023-03-04T18:38:08.072Z,54.10
2023-03-04T18:41:31.678Z,54.10
2023-03-04T18:44:55.611Z,54.10
2023-03-04T18:48:19.081Z,54.50
2023-03-04T18:51:44.101Z,54.20
2023-03-04T18:55:10.887Z,54.20
2023-03-04T18:58:38.029Z,54.80
2023-03-04T19:02:06.361Z,54.50
2023-03-04T19:05:33.608Z,54.20
2023-03-04T19:08:58.610Z,54.10
2023-03-04T19:12:22.074Z,54.10
2023-03-04T19:15:45.719Z,54.60
2023-03-04T19:19:09.567Z,54.10
2023-03-04T19:22:33.503Z,54.10
2023-03-04T19:25:58.406Z,54.00
2023-03-04T19:29:22.032Z,54.20
2023-03-04T19:32:45.494Z,54.10
2023-03-04T19:36:10.906Z,54.10
2023-03-04T19:39:34.720Z,54.20
2023-03-04T19:42:59.901Z,54.20
2023-03-04T19:46:23.452Z,54.20
2023-03-04T19:49:47.157Z,54.20
2023-03-04T19:53:18.176Z,54.30
2023-03-04T19:56:42.164Z,54.30
2023-03-04T20:00:09.456Z,54.30
2023-03-04T20:03:34.193Z,55.10
2023-03-04T20:06:58.852Z,54.40
2023-03-04T20:10:23.033Z,54.30
2023-03-04T20:13:46.662Z,54.50
2023-03-04T20:17:12.061Z,54.30
2023-03-04T20:20:38.131Z,54.40
2023-03-04T20:24:02.892Z,54.40
2023-03-04T20:27:26.468Z,54.50
2023-03-04T20:30:50.085Z,54.40
2023-03-04T20:34:15.594Z,54.40
2023-03-04T20:37:39.315Z,54.40
2023-03-04T20:41:03.078Z,54.30
2023-03-04T20:44:27.070Z,54.30
2023-03-04T20:47:50.524Z,54.40
2023-03-04T20:51:15.437Z,54.30
2023-03-04T20:54:40.349Z,54.30
2023-03-04T20:58:05.192Z,54.30
2023-03-04T21:01:31.000Z,54.20
2023-03-04T21:04:55.598Z,54.20
2023-03-04T21:08:20.822Z,54.10
2023-03-04T21:11:45.118Z,54.20
2023-03-04T21:15:10.414Z,54.20
2023-03-04T21:18:34.004Z,54.40
2023-03-04T21:21:59.358Z,54.30
2023-03-04T21:25:24.774Z,54.40
2023-03-04T21:28:50.842Z,54.40
2023-03-04T21:32:24.884Z,54.50
2023-03-04T21:35:50.141Z,54.50
2023-03-04T21:39:17.684Z,54.40
2023-03-04T21:42:42.851Z,54.40
2023-03-04T21:46:06.565Z,54.90
2023-03-04T21:49:30.403Z,54.30
2023-03-04T21:52:53.918Z,54.30
2023-03-04T21:56:17.815Z,54.30
2023-03-04T21:59:43.264Z,54.30
2023-03-04T22:03:06.928Z,54.40
2023-03-04T22:06:33.682Z,54.40
2023-03-04T22:09:59.393Z,54.50
2023-03-04T22:13:24.053Z,54.90
2023-03-04T22:16:55.310Z,54.30
2023-03-04T22:20:20.235Z,54.30
2023-03-04T22:23:44.489Z,54.40
2023-03-04T22:27:08.532Z,54.50
2023-03-04T22:30:32.939Z,54.40
2023-03-04T22:33:58.350Z,54.50
2023-03-04T22:37:22.923Z,54.50
2023-03-04T22:40:46.541Z,54.50
2023-03-04T22:44:10.137Z,54.50
2023-03-04T22:47:33.659Z,54.50
2023-03-04T22:50:58.460Z,54.50
2023-03-04T22:54:22.720Z,54.50
2023-03-04T22:57:46.874Z,54.40
2023-03-04T23:01:12.032Z,54.70
2023-03-04T23:04:35.576Z,54.50
2023-03-04T23:08:00.404Z,54.50
2023-03-04T23:11:27.315Z,54.50
2023-03-04T23:14:50.860Z,54.50
2023-03-04T23:18:15.154Z,54.40
2023-03-04T23:21:39.579Z,54.30
2023-03-04T23:25:04.811Z,54.50
2023-03-04T23:28:28.921Z,54.50
2023-03-04T23:31:52.894Z,54.50
2023-03-04T23:35:16.720Z,54.50
2023-03-04T23:38:40.857Z,54.60
2023-03-04T23:42:05.841Z,54.70
2023-03-04T23:45:29.540Z,54.70
2023-03-04T23:48:54.905Z,54.70
2023-03-04T23:52:18.413Z,54.80
2023-03-04T23:55:43.040Z,54.70
2023-03-04T23:59:08.656Z,54.70
